Time;durP1;ratioP1;P1;durP2;ratioP2;P2;SDS_P1;SDS_P2;PMS_P1;PMS_P2;Temp;Humidity;BMP_temperature;BMP_pressure;BME280_temperature;BME280_humidity;BME280_pressure;Samples;Min_cycle;Max_cycle;Signal;HPM_P1;HPM_P2
2023/07/23 00:00:09;;;;;;;;;0.00;0.00;;;;;;;;5106745;27;45548;-73
2023/07/23 00:02:35;;;;;;;;;1.67;1.33;;;;;;;;5108315;27;45288;-72
2023/07/23 00:05:00;;;;;;;;;3.00;2.67;;;;;;;;5107027;27;46108;-74
2023/07/23 00:07:25;;;;;;;;;3.00;3.00;;;;;;;;5106540;27;45261;-73
2023/07/23 00:09:51;;;;;;;;;2.00;2.00;;;;;;;;5108245;27;45497;-73
2023/07/23 00:12:16;;;;;;;;;2.67;2.67;;;;;;;;5106533;27;45380;-72
2023/07/23 00:14:41;;;;;;;;;3.00;2.00;;;;;;;;5107071;27;45422;-71
2023/07/23 00:17:08;;;;;;;;;2.33;2.00;;;;;;;;5107838;27;45380;-74
2023/07/23 00:19:33;;;;;;;;;3.00;2.33;;;;;;;;5105902;27;45364;-72
2023/07/23 00:21:58;;;;;;;;;2.00;2.00;;;;;;;;5107617;27;45463;-71
2023/07/23 00:24:24;;;;;;;;;2.67;2.33;;;;;;;;5107211;27;45366;-72
2023/07/23 00:26:49;;;;;;;;;3.00;3.00;;;;;;;;5105588;27;45427;-73
2023/07/23 00:29:14;;;;;;;;;2.00;2.00;;;;;;;;5107952;27;45425;-74
2023/07/23 00:31:40;;;;;;;;;3.33;2.67;;;;;;;;5107117;27;45400;-73
2023/07/23 00:34:06;;;;;;;;;2.00;2.00;;;;;;;;5105954;27;45447;-74
2023/07/23 00:36:31;;;;;;;;;3.00;2.33;;;;;;;;5107601;27;45573;-73
2023/07/23 00:38:57;;;;;;;;;3.00;2.00;;;;;;;;5106075;27;45441;-74
2023/07/23 00:41:22;;;;;;;;;2.00;1.00;;;;;;;;5106711;27;45482;-72
2023/07/23 00:43:47;;;;;;;;;1.67;1.67;;;;;;;;5107409;27;46192;-74
2023/07/23 00:46:13;;;;;;;;;2.00;2.00;;;;;;;;5105737;27;45516;-72
2023/07/23 00:48:38;;;;;;;;;3.33;3.00;;;;;;;;5107328;27;45316;-72
2023/07/23 00:51:04;;;;;;;;;2.00;2.00;;;;;;;;5109170;27;45925;-72
2023/07/23 00:53:29;;;;;;;;;2.33;2.00;;;;;;;;5108897;27;45980;-72
2023/07/23 00:55:55;;;;;;;;;2.00;2.00;;;;;;;;5110894;27;45483;-72
2023/07/23 00:58:20;;;;;;;;;1.67;1.67;;;;;;;;5110023;27;45480;-72
2023/07/23 01:00:46;;;;;;;;;3.00;3.00;;;;;;;;5109776;27;45517;-73
2023/07/23 01:03:11;;;;;;;;;2.33;2.00;;;;;;;;5111346;27;45428;-73
2023/07/23 01:05:41;;;;;;;;;0.67;0.67;;;;;;;;5109359;27;45387;-73
2023/07/23 01:08:07;;;;;;;;;2.00;2.00;;;;;;;;5109438;27;45622;-72
2023/07/23 01:10:33;;;;;;;;;1.67;1.67;;;;;;;;5110981;27;45593;-72
2023/07/23 01:12:59;;;;;;;;;3.00;3.00;;;;;;;;5109177;27;45558;-72
2023/07/23 01:15:25;;;;;;;;;2.33;2.00;;;;;;;;5114286;27;45560;-72
2023/07/23 01:17:50;;;;;;;;;2.33;2.33;;;;;;;;5121043;27;45813;-73
2023/07/23 01:20:16;;;;;;;;;4.00;3.33;;;;;;;;5120978;27;45315;-72
2023/07/23 01:22:41;;;;;;;;;2.00;2.00;;;;;;;;5121249;27;45763;-72
2023/07/23 01:25:06;;;;;;;;;3.00;3.00;;;;;;;;5120591;27;45518;-72
2023/07/23 01:27:32;;;;;;;;;4.00;2.00;;;;;;;;5120811;27;45241;-74
2023/07/23 01:29:57;;;;;;;;;3.67;3.00;;;;;;;;5120970;27;45358;-72
2023/07/23 01:32:23;;;;;;;;;3.33;3.00;;;;;;;;5120638;27;45521;-73
2023/07/23 01:34:48;;;;;;;;;3.00;3.00;;;;;;;;5120648;27;45362;-72
2023/07/23 01:37:14;;;;;;;;;2.00;2.00;;;;;;;;5120976;27;45409;-71
2023/07/23 01:39:40;;;;;;;;;3.00;3.00;;;;;;;;5120573;27;45497;-73
2023/07/23 01:42:08;;;;;;;;;2.00;2.00;;;;;;;;5120359;27;45336;-72
2023/07/23 01:44:33;;;;;;;;;2.00;2.00;;;;;;;;5120611;27;45462;-72
2023/07/23 01:46:59;;;;;;;;;2.00;2.00;;;;;;;;5120509;27;45324;-73
2023/07/23 01:49:24;;;;;;;;;2.33;2.33;;;;;;;;5120645;27;45339;-72
2023/07/23 01:51:49;;;;;;;;;2.00;1.00;;;;;;;;5120373;27;45330;-73
2023/07/23 01:54:15;;;;;;;;;3.67;2.33;;;;;;;;5120209;27;45415;-72
2023/07/23 01:56:41;;;;;;;;;3.67;3.67;;;;;;;;5120444;27;45791;-72
2023/07/23 01:59:07;;;;;;;;;4.00;4.00;;;;;;;;5120517;27;45321;-72
2023/07/23 02:01:32;;;;;;;;;4.00;3.00;;;;;;;;5119749;27;46178;-73
2023/07/23 02:03:58;;;;;;;;;2.67;2.00;;;;;;;;5120116;27;45360;-73
2023/07/23 02:06:23;;;;;;;;;3.67;3.00;;;;;;;;5120489;27;45357;-73
2023/07/23 02:08:48;;;;;;;;;3.00;3.00;;;;;;;;5120592;27;45210;-72
2023/07/23 02:11:14;;;;;;;;;2.00;2.00;;;;;;;;5120452;27;45475;-74
2023/07/23 02:13:39;;;;;;;;;2.00;2.00;;;;;;;;5120032;27;45317;-73
2023/07/23 02:16:04;;;;;;;;;2.00;2.00;;;;;;;;5119980;27;45282;-72
2023/07/23 02:18:30;;;;;;;;;2.00;2.00;;;;;;;;5120276;27;45268;-72
2023/07/23 02:20:56;;;;;;;;;3.00;3.00;;;;;;;;5119714;27;45426;-72
2023/07/23 02:23:21;;;;;;;;;3.67;3.00;;;;;;;;5119564;27;45466;-72
2023/07/23 02:25:50;;;;;;;;;3.00;3.00;;;;;;;;5120229;27;45498;-72
2023/07/23 02:28:15;;;;;;;;;4.00;3.00;;;;;;;;5120325;27;45245;-73
2023/07/23 02:30:41;;;;;;;;;1.67;1.67;;;;;;;;5119493;27;45517;-73
2023/07/23 02:33:06;;;;;;;;;2.00;2.00;;;;;;;;5119620;27;45486;-74
2023/07/23 02:35:36;;;;;;;;;3.67;3.00;;;;;;;;5119778;27;45473;-72
2023/07/23 02:38:01;;;;;;;;;3.00;3.00;;;;;;;;5119546;27;45522;-72
2023/07/23 02:40:29;;;;;;;;;2.00;1.33;;;;;;;;5119329;27;46161;-73
2023/07/23 02:42:55;;;;;;;;;3.00;2.67;;;;;;;;5119662;27;45429;-72
2023/07/23 02:45:21;;;;;;;;;2.33;2.00;;;;;;;;5119911;27;45633;-73
2023/07/23 02:47:47;;;;;;;;;2.00;2.00;;;;;;;;5120349;27;45570;-74
2023/07/23 02:50:12;;;;;;;;;3.00;2.00;;;;;;;;5119311;27;46006;-72
2023/07/23 02:52:38;;;;;;;;;3.67;3.00;;;;;;;;5119442;27;45408;-72
2023/07/23 02:55:03;;;;;;;;;1.00;1.00;;;;;;;;5119590;27;45287;-72
2023/07/23 02:57:28;;;;;;;;;3.00;2.00;;;;;;;;5119617;27;45515;-72
2023/07/23 02:59:54;;;;;;;;;3.00;2.67;;;;;;;;5119215;27;46213;-72
2023/07/23 03:02:20;;;;;;;;;2.00;2.00;;;;;;;;5119601;27;45362;-72
2023/07/23 03:04:45;;;;;;;;;2.00;2.00;;;;;;;;5119428;27;45415;-72
2023/07/23 03:07:10;;;;;;;;;2.00;2.00;;;;;;;;5119380;27;45181;-72
2023/07/23 03:09:36;;;;;;;;;2.67;2.67;;;;;;;;5119075;27;46031;-71
2023/07/23 03:12:02;;;;;;;;;4.00;3.00;;;;;;;;5119162;27;45266;-74
2023/07/23 03:14:28;;;;;;;;;2.67;2.67;;;;;;;;5118507;27;45341;-72
2023/07/23 03:16:53;;;;;;;;;2.33;2.33;;;;;;;;5119060;27;45467;-72
2023/07/23 03:19:18;;;;;;;;;3.00;2.67;;;;;;;;5117757;27;47624;-72
2023/07/23 03:21:44;;;;;;;;;3.00;3.00;;;;;;;;5118789;27;45375;-72
2023/07/23 03:24:09;;;;;;;;;3.00;2.33;;;;;;;;5118726;27;45408;-72
2023/07/23 03:26:34;;;;;;;;;4.67;4.00;;;;;;;;5119156;27;45365;-72
2023/07/23 03:29:00;;;;;;;;;4.00;3.33;;;;;;;;5118915;27;45972;-72
2023/07/23 03:31:25;;;;;;;;;4.00;3.00;;;;;;;;5118782;27;45493;-72
2023/07/23 03:33:50;;;;;;;;;2.00;2.00;;;;;;;;5119388;27;45314;-72
2023/07/23 03:36:16;;;;;;;;;3.00;2.00;;;;;;;;5119111;27;45451;-73
2023/07/23 03:38:41;;;;;;;;;2.67;2.67;;;;;;;;5118604;27;45965;-72
2023/07/23 03:41:06;;;;;;;;;3.00;2.33;;;;;;;;5118811;27;45203;-72
2023/07/23 03:43:32;;;;;;;;;2.00;1.67;;;;;;;;5118926;27;45348;-72
2023/07/23 03:45:57;;;;;;;;;2.33;2.33;;;;;;;;5118903;27;45312;-73
2023/07/23 03:48:22;;;;;;;;;2.00;2.00;;;;;;;;5118924;27;45977;-72
2023/07/23 03:50:48;;;;;;;;;2.67;2.33;;;;;;;;5118482;27;45321;-73
2023/07/23 03:53:13;;;;;;;;;2.00;2.00;;;;;;;;5118597;27;45198;-72
2023/07/23 03:55:38;;;;;;;;;2.33;2.00;;;;;;;;5118808;27;45294;-72
2023/07/23 03:58:04;;;;;;;;;3.00;3.00;;;;;;;;5118457;27;45959;-73
2023/07/23 04:00:31;;;;;;;;;5.00;3.00;;;;;;;;5118115;27;45291;-73
2023/07/23 04:02:59;;;;;;;;;1.00;1.00;;;;;;;;5121778;27;45265;-73
2023/07/23 04:05:24;;;;;;;;;2.33;2.33;;;;;;;;5120758;27;45454;-73
2023/07/23 04:07:49;;;;;;;;;2.00;2.00;;;;;;;;5120526;27;45435;-72
2023/07/23 04:10:15;;;;;;;;;3.00;2.00;;;;;;;;5119235;27;45457;-73
2023/07/23 04:12:43;;;;;;;;;3.00;2.33;;;;;;;;5120246;27;45400;-72
2023/07/23 04:15:09;;;;;;;;;2.33;2.33;;;;;;;;5119226;27;45215;-73
2023/07/23 04:17:34;;;;;;;;;2.00;2.00;;;;;;;;5119827;27;46299;-73
2023/07/23 04:20:00;;;;;;;;;2.00;2.00;;;;;;;;5120061;27;45500;-72
2023/07/23 04:22:25;;;;;;;;;2.33;2.33;;;;;;;;5118936;27;45501;-73
2023/07/23 04:24:51;;;;;;;;;3.00;3.00;;;;;;;;5122534;27;45222;-73
2023/07/23 04:27:18;;;;;;;;;4.00;2.00;;;;;;;;5123928;27;45939;-73
2023/07/23 04:29:43;;;;;;;;;3.00;2.67;;;;;;;;5121257;27;45371;-73
2023/07/23 04:32:08;;;;;;;;;3.00;3.00;;;;;;;;5122705;27;45793;-72
2023/07/23 04:34:34;;;;;;;;;2.00;2.00;;;;;;;;5122243;27;45277;-72
2023/07/23 04:36:59;;;;;;;;;3.00;3.00;;;;;;;;5121630;27;45344;-73
2023/07/23 04:39:24;;;;;;;;;2.67;2.67;;;;;;;;5111058;27;46343;-72
2023/07/23 04:41:50;;;;;;;;;3.00;3.00;;;;;;;;5110280;27;45576;-73
2023/07/23 04:44:15;;;;;;;;;4.00;3.00;;;;;;;;5111812;27;45490;-73
2023/07/23 04:46:40;;;;;;;;;4.33;4.33;;;;;;;;5111647;27;46592;-72
2023/07/23 04:49:06;;;;;;;;;3.00;3.00;;;;;;;;5110858;27;45436;-73
2023/07/23 04:51:31;;;;;;;;;2.67;2.67;;;;;;;;5109808;27;45566;-72
2023/07/23 04:53:56;;;;;;;;;3.00;3.00;;;;;;;;5112011;27;45598;-72
2023/07/23 04:56:22;;;;;;;;;3.00;3.00;;;;;;;;5109754;27;45888;-72
2023/07/23 04:58:47;;;;;;;;;3.00;3.00;;;;;;;;5110018;27;45472;-72
2023/07/23 05:01:12;;;;;;;;;4.33;3.33;;;;;;;;5111502;27;45622;-72
2023/07/23 05:03:38;;;;;;;;;2.00;2.00;;;;;;;;5109261;27;45711;-72
2023/07/23 05:06:04;;;;;;;;;3.00;2.33;;;;;;;;5110046;27;45401;-73
2023/07/23 05:08:30;;;;;;;;;3.00;3.00;;;;;;;;5110470;27;45354;-73
2023/07/23 05:11:02;;;;;;;;;4.00;4.00;;;;;;;;5093842;27;45380;-72
2023/07/23 05:13:28;;;;;;;;;3.00;3.00;;;;;;;;5091036;27;45461;-72
2023/07/23 05:15:54;;;;;;;;;3.00;3.00;;;;;;;;5088992;27;45812;-73
2023/07/23 05:18:19;;;;;;;;;2.00;2.00;;;;;;;;5088893;27;45591;-72
2023/07/23 05:20:45;;;;;;;;;3.00;3.00;;;;;;;;5088918;27;45763;-72
2023/07/23 05:23:10;;;;;;;;;3.00;3.00;;;;;;;;5088625;27;45604;-72
2023/07/23 05:25:35;;;;;;;;;3.33;3.33;;;;;;;;5089349;27;45555;-73
2023/07/23 05:28:01;;;;;;;;;3.00;2.67;;;;;;;;5089534;27;45372;-73
2023/07/23 05:30:26;;;;;;;;;2.00;2.00;;;;;;;;5088426;27;45383;-72
2023/07/23 05:32:52;;;;;;;;;3.67;3.67;;;;;;;;5090004;27;45357;-72
2023/07/23 05:35:17;;;;;;;;;5.00;5.00;;;;;;;;5089235;27;45345;-73
2023/07/23 05:37:43;;;;;;;;;3.00;3.00;;;;;;;;5087441;27;45423;-71
2023/07/23 05:40:08;;;;;;;;;3.00;3.00;;;;;;;;5089880;27;45546;-72
2023/07/23 05:42:34;;;;;;;;;3.67;3.00;;;;;;;;5088449;27;45472;-72
2023/07/23 05:44:59;;;;;;;;;3.00;3.00;;;;;;;;5088603;27;45971;-72
2023/07/23 05:47:24;;;;;;;;;2.00;2.00;;;;;;;;5089862;27;45398;-72
2023/07/23 05:49:59;;;;;;;;;4.67;4.00;;;;;;;;5087620;27;45961;-71
2023/07/23 05:52:25;;;;;;;;;3.33;3.33;;;;;;;;5087878;27;45583;-72
2023/07/23 05:54:50;;;;;;;;;3.00;2.67;;;;;;;;5089575;27;45570;-71
2023/07/23 05:57:15;;;;;;;;;3.00;3.00;;;;;;;;5088493;27;45502;-73
2023/07/23 05:59:41;;;;;;;;;4.00;4.00;;;;;;;;5088196;27;45498;-73
2023/07/23 06:02:06;;;;;;;;;3.33;3.33;;;;;;;;5089680;27;45477;-71
2023/07/23 06:04:32;;;;;;;;;3.00;3.00;;;;;;;;5087605;27;46131;-72
2023/07/23 06:06:57;;;;;;;;;3.00;3.00;;;;;;;;5088820;27;45506;-72
2023/07/23 06:09:23;;;;;;;;;5.67;4.67;;;;;;;;5089627;27;45507;-72
2023/07/23 06:11:48;;;;;;;;;3.67;3.33;;;;;;;;5088304;27;45361;-72
2023/07/23 06:14:13;;;;;;;;;2.67;2.00;;;;;;;;5088507;27;45766;-71
2023/07/23 06:16:39;;;;;;;;;3.33;3.00;;;;;;;;5099955;27;45490;-71
2023/07/23 06:19:04;;;;;;;;;7.00;4.67;;;;;;;;5108719;27;45228;-71
2023/07/23 06:21:30;;;;;;;;;4.00;4.00;;;;;;;;5103269;27;45252;-73
2023/07/23 06:23:56;;;;;;;;;3.33;3.33;;;;;;;;5108425;27;45981;-72
2023/07/23 06:26:24;;;;;;;;;4.00;4.00;;;;;;;;5103955;27;45486;-72
2023/07/23 06:28:49;;;;;;;;;3.33;3.33;;;;;;;;5105758;27;45441;-73
2023/07/23 06:31:17;;;;;;;;;3.67;3.00;;;;;;;;5108634;27;45377;-74
2023/07/23 06:33:43;;;;;;;;;3.33;3.00;;;;;;;;5109265;27;46125;-72
2023/07/23 06:36:08;;;;;;;;;3.67;3.00;;;;;;;;5107431;27;45435;-72
2023/07/23 06:38:33;;;;;;;;;3.00;3.00;;;;;;;;5101041;27;45360;-72
2023/07/23 06:40:59;;;;;;;;;5.00;4.00;;;;;;;;5098882;27;45241;-73
2023/07/23 06:43:25;;;;;;;;;3.00;3.00;;;;;;;;5098010;27;45558;-73
2023/07/23 06:45:51;;;;;;;;;4.67;3.00;;;;;;;;5097315;27;45371;-72
2023/07/23 06:48:20;;;;;;;;;4.67;4.00;;;;;;;;5096830;27;45278;-73
2023/07/23 06:50:46;;;;;;;;;2.00;2.00;;;;;;;;5094289;27;45564;-72
2023/07/23 06:53:11;;;;;;;;;5.33;4.33;;;;;;;;5097843;27;46072;-73
2023/07/23 06:55:55;;;;;;;;;4.00;4.00;;;;;;;;5095875;27;45494;-71
2023/07/23 06:58:20;;;;;;;;;4.00;4.00;;;;;;;;5096671;27;45504;-73
2023/07/23 07:00:46;;;;;;;;;4.00;4.00;;;;;;;;5097926;27;45487;-73
2023/07/23 07:03:11;;;;;;;;;4.00;3.00;;;;;;;;5098465;27;45431;-72
2023/07/23 07:05:36;;;;;;;;;0.67;0.33;;;;;;;;5098064;27;45401;-74
2023/07/23 07:08:02;;;;;;;;;3.00;3.00;;;;;;;;5098584;27;45379;-72
2023/07/23 07:10:27;;;;;;;;;4.33;3.67;;;;;;;;5098600;27;45344;-73
2023/07/23 07:12:52;;;;;;;;;4.67;4.00;;;;;;;;5097962;27;45991;-73
2023/07/23 07:15:18;;;;;;;;;3.00;2.33;;;;;;;;5098147;27;45360;-73
2023/07/23 07:17:43;;;;;;;;;3.00;3.00;;;;;;;;5098046;27;45396;-74
2023/07/23 07:20:08;;;;;;;;;3.00;3.00;;;;;;;;5098111;27;45342;-72
2023/07/23 07:22:34;;;;;;;;;3.33;2.67;;;;;;;;5097958;27;45620;-73
2023/07/23 07:24:59;;;;;;;;;3.00;3.00;;;;;;;;5098341;27;45238;-74
2023/07/23 07:27:24;;;;;;;;;3.00;2.00;;;;;;;;5098188;27;45317;-73
2023/07/23 07:29:50;;;;;;;;;1.33;1.00;;;;;;;;5098439;27;45269;-72
2023/07/23 07:32:15;;;;;;;;;1.33;1.33;;;;;;;;5097665;27;45379;-73
2023/07/23 07:34:40;;;;;;;;;2.00;2.00;;;;;;;;5097987;27;45413;-74
2023/07/23 07:37:07;;;;;;;;;6.00;5.33;;;;;;;;5097951;27;45128;-76
2023/07/23 07:39:33;;;;;;;;;2.33;2.00;;;;;;;;5098249;27;45539;-76
2023/07/23 07:41:58;;;;;;;;;2.00;2.00;;;;;;;;5096652;27;46075;-74
2023/07/23 07:44:23;;;;;;;;;4.00;3.00;;;;;;;;5101871;27;46786;-74
2023/07/23 07:46:49;;;;;;;;;1.00;1.00;;;;;;;;5096747;27;45874;-75
2023/07/23 07:49:14;;;;;;;;;1.00;1.00;;;;;;;;5097015;27;45338;-74
2023/07/23 07:51:43;;;;;;;;;1.00;0.67;;;;;;;;5099790;27;45374;-72
2023/07/23 07:54:08;;;;;;;;;1.67;1.67;;;;;;;;5096941;27;45429;-73
2023/07/23 07:56:34;;;;;;;;;1.00;1.00;;;;;;;;5098840;27;45543;-74
2023/07/23 07:58:59;;;;;;;;;1.33;1.33;;;;;;;;5096423;27;45514;-74
2023/07/23 08:01:25;;;;;;;;;1.00;1.00;;;;;;;;5096563;27;46131;-74
2023/07/23 08:03:50;;;;;;;;;1.00;1.00;;;;;;;;5096607;27;45459;-75
2023/07/23 08:06:16;;;;;;;;;3.00;3.00;;;;;;;;5096965;27;45582;-74
2023/07/23 08:08:43;;;;;;;;;1.00;1.00;;;;;;;;5097726;27;45310;-76
2023/07/23 08:11:08;;;;;;;;;2.67;2.00;;;;;;;;5097054;27;45297;-75
2023/07/23 08:13:35;;;;;;;;;1.67;1.00;;;;;;;;5097318;27;45934;-74
2023/07/23 08:16:02;;;;;;;;;0.33;0.33;;;;;;;;5097589;27;45543;-75
2023/07/23 08:18:27;;;;;;;;;3.00;2.67;;;;;;;;5097461;27;45431;-76
2023/07/23 08:20:57;;;;;;;;;1.00;1.00;;;;;;;;5096778;27;45877;-74
2023/07/23 08:23:23;;;;;;;;;1.00;1.00;;;;;;;;5096396;27;45485;-74
2023/07/23 08:25:52;;;;;;;;;2.00;2.00;;;;;;;;5096465;27;45566;-74
2023/07/23 08:28:21;;;;;;;;;2.67;2.00;;;;;;;;5096646;27;45367;-75
2023/07/23 08:30:47;;;;;;;;;1.00;1.00;;;;;;;;5095587;27;46136;-75
2023/07/23 08:33:12;;;;;;;;;2.00;2.00;;;;;;;;5096598;27;45310;-75
2023/07/23 08:35:38;;;;;;;;;2.67;2.67;;;;;;;;5097128;27;45687;-74
2023/07/23 08:38:03;;;;;;;;;3.67;3.67;;;;;;;;5101427;27;45587;-74
2023/07/23 08:40:29;;;;;;;;;1.67;1.00;;;;;;;;5099227;27;46129;-76
2023/07/23 08:42:55;;;;;;;;;1.33;1.33;;;;;;;;5096009;27;45561;-75
2023/07/23 08:45:52;;;;;;;;;2.00;2.00;;;;;;;;5095934;27;45491;-75
2023/07/23 08:48:19;;;;;;;;;8.00;8.00;;;;;;;;5060056;27;45750;-74
2023/07/23 08:50:45;;;;;;;;;3.00;3.00;;;;;;;;5096025;27;45531;-76
2023/07/23 08:53:12;;;;;;;;;2.33;2.33;;;;;;;;5095058;27;45340;-74
2023/07/23 08:55:40;;;;;;;;;3.33;3.00;;;;;;;;5095038;27;45373;-76
2023/07/23 08:58:05;;;;;;;;;3.00;3.00;;;;;;;;5097033;27;45478;-77
2023/07/23 09:00:31;;;;;;;;;2.67;2.67;;;;;;;;5095927;27;45285;-75
2023/07/23 09:03:02;;;;;;;;;2.33;2.33;;;;;;;;5096201;27;45433;-77
2023/07/23 09:05:28;;;;;;;;;4.33;4.33;;;;;;;;5096167;27;45899;-77
2023/07/23 09:07:53;;;;;;;;;1.00;0.00;;;;;;;;5095662;27;45534;-76
2023/07/23 09:10:19;;;;;;;;;3.00;3.00;;;;;;;;5095814;27;45539;-74
2023/07/23 09:12:44;;;;;;;;;4.00;4.00;;;;;;;;5098498;27;45459;-74
2023/07/23 09:15:12;;;;;;;;;4.67;4.67;;;;;;;;5099480;27;45748;-74
2023/07/23 09:17:37;;;;;;;;;3.33;3.00;;;;;;;;5097120;27;45392;-77
2023/07/23 09:20:03;;;;;;;;;4.00;3.33;;;;;;;;5101545;27;46165;-71
2023/07/23 09:22:32;;;;;;;;;1.67;1.67;;;;;;;;5109983;27;45306;-73
2023/07/23 09:24:58;;;;;;;;;2.67;2.67;;;;;;;;5107773;27;45471;-73
2023/07/23 09:27:24;;;;;;;;;3.67;3.00;;;;;;;;5100995;27;45517;-73
2023/07/23 09:29:50;;;;;;;;;2.67;2.67;;;;;;;;5108034;27;45356;-73
2023/07/23 09:32:23;;;;;;;;;2.00;2.00;;;;;;;;5098790;27;45382;-75
2023/07/23 09:34:49;;;;;;;;;3.33;3.33;;;;;;;;5098881;27;45506;-73
2023/07/23 09:37:15;;;;;;;;;4.00;3.33;;;;;;;;5107311;27;45407;-73
2023/07/23 09:39:41;;;;;;;;;4.00;4.00;;;;;;;;5102461;27;45473;-75
2023/07/23 09:42:06;;;;;;;;;4.33;4.33;;;;;;;;5098593;27;45451;-74
2023/07/23 09:44:31;;;;;;;;;5.00;3.67;;;;;;;;5099447;27;45434;-74
2023/07/23 09:46:58;;;;;;;;;3.00;3.00;;;;;;;;5098676;27;45437;-72
2023/07/23 09:49:27;;;;;;;;;4.00;4.00;;;;;;;;5095632;27;45480;-72
2023/07/23 09:51:53;;;;;;;;;3.33;3.33;;;;;;;;5098537;27;45438;-74
2023/07/23 09:54:19;;;;;;;;;31.00;28.33;;;;;;;;5097969;27;45286;-75
2023/07/23 10:00:09;;;;;;;;;3.67;3.67;;;;;;;;5091607;27;45451;-75
2023/07/23 10:02:47;;;;;;;;;6.00;5.00;;;;;;;;5093428;27;45945;-75
2023/07/23 10:05:15;;;;;;;;;4.67;4.67;;;;;;;;5096772;27;45491;-77
2023/07/23 10:08:15;;;;;;;;;10.33;9.67;;;;;;;;5097025;27;45535;-73
2023/07/23 10:10:59;;;;;;;;;3.67;3.67;;;;;;;;5092132;27;46219;-79
2023/07/23 10:13:24;;;;;;;;;6.00;6.00;;;;;;;;5096546;27;45698;-79
2023/07/23 10:15:51;;;;;;;;;8.00;8.00;;;;;;;;5098097;27;45542;-76
2023/07/23 10:21:19;;;;;;;;;4.00;4.00;;;;;;;;5091770;27;45538;-76
2023/07/23 10:23:51;;;;;;;;;3.33;3.33;;;;;;;;5097108;27;45440;-74
2023/07/23 10:26:29;;;;;;;;;3.67;3.67;;;;;;;;5095791;27;45410;-72
2023/07/23 10:28:57;;;;;;;;;4.00;4.00;;;;;;;;5095557;27;45528;-75
2023/07/23 10:31:24;;;;;;;;;4.00;4.00;;;;;;;;5097900;27;45389;-74
2023/07/23 10:33:50;;;;;;;;;4.67;4.67;;;;;;;;5097386;27;45411;-72
2023/07/23 10:36:16;;;;;;;;;4.00;4.00;;;;;;;;5097830;27;45371;-73
2023/07/23 10:38:42;;;;;;;;;4.33;4.33;;;;;;;;5100528;27;45367;-71
2023/07/23 10:41:07;;;;;;;;;5.33;5.00;;;;;;;;5097651;27;45255;-72
2023/07/23 10:43:39;;;;;;;;;4.00;4.00;;;;;;;;5098549;27;45256;-72
2023/07/23 10:46:12;;;;;;;;;5.33;4.67;;;;;;;;5098677;27;45261;-72
2023/07/23 10:48:38;;;;;;;;;4.00;3.33;;;;;;;;5098240;27;45466;-75
2023/07/23 10:51:06;;;;;;;;;4.67;4.33;;;;;;;;5097906;27;46302;-72
2023/07/23 10:53:32;;;;;;;;;6.00;6.00;;;;;;;;5097735;27;45464;-75
2023/07/23 10:56:00;;;;;;;;;2.67;2.67;;;;;;;;5097393;27;45552;-75
2023/07/23 10:58:26;;;;;;;;;5.00;4.00;;;;;;;;5097533;27;45463;-74
2023/07/23 11:00:55;;;;;;;;;6.00;6.00;;;;;;;;5096825;27;46126;-75
2023/07/23 11:03:21;;;;;;;;;4.33;3.33;;;;;;;;5097920;27;45317;-75
2023/07/23 11:08:51;;;;;;;;;6.67;6.67;;;;;;;;5098051;27;45491;-75
2023/07/23 11:11:16;;;;;;;;;5.00;5.00;;;;;;;;5097800;27;45283;-74
2023/07/23 11:13:41;;;;;;;;;4.33;4.33;;;;;;;;5097043;27;45530;-75
2023/07/23 11:16:07;;;;;;;;;5.00;5.00;;;;;;;;5098762;27;45370;-75
2023/07/23 11:18:33;;;;;;;;;4.33;4.33;;;;;;;;5097131;27;45514;-77
2023/07/23 11:21:02;;;;;;;;;5.00;5.00;;;;;;;;5096403;27;45544;-73
2023/07/23 11:23:28;;;;;;;;;5.33;5.33;;;;;;;;5097688;27;45397;-74
2023/07/23 11:25:53;;;;;;;;;3.33;3.33;;;;;;;;5097615;27;45825;-74
2023/07/23 11:28:20;;;;;;;;;8.33;7.67;;;;;;;;5098052;27;45531;-74
2023/07/23 11:30:50;;;;;;;;;4.00;3.67;;;;;;;;5096179;27;46747;-72
2023/07/23 11:33:16;;;;;;;;;5.33;4.67;;;;;;;;5097352;27;45273;-74
2023/07/23 11:35:42;;;;;;;;;5.67;5.00;;;;;;;;5096958;27;45418;-75
2023/07/23 11:38:07;;;;;;;;;4.67;4.67;;;;;;;;5098215;27;45499;-75
2023/07/23 11:40:33;;;;;;;;;3.00;3.00;;;;;;;;5097610;27;46317;-75
2023/07/23 11:43:05;;;;;;;;;4.33;4.00;;;;;;;;5097652;27;45816;-75
2023/07/23 11:45:31;;;;;;;;;3.00;3.00;;;;;;;;5097748;27;45183;-75
2023/07/23 11:47:56;;;;;;;;;4.33;3.67;;;;;;;;5097605;27;45421;-73
2023/07/23 11:50:22;;;;;;;;;5.00;5.00;;;;;;;;5097510;27;45410;-74
2023/07/23 11:52:48;;;;;;;;;6.33;6.33;;;;;;;;5097294;27;45367;-73
2023/07/23 11:55:20;;;;;;;;;8.67;7.67;;;;;;;;5097263;27;45507;-75
2023/07/23 11:57:57;;;;;;;;;5.33;5.33;;;;;;;;5097488;27;45266;-75
2023/07/23 12:00:48;;;;;;;;;10.33;9.33;;;;;;;;5097038;27;46257;-74
2023/07/23 12:03:14;;;;;;;;;5.33;5.33;;;;;;;;5097348;27;45531;-75
2023/07/23 12:05:39;;;;;;;;;1.00;0.00;;;;;;;;5097689;27;45403;-75
2023/07/23 12:08:06;;;;;;;;;4.33;4.00;;;;;;;;5097679;27;45379;-75
2023/07/23 12:10:32;;;;;;;;;5.00;4.67;;;;;;;;5097308;27;45373;-71
2023/07/23 12:12:58;;;;;;;;;5.00;5.00;;;;;;;;5097309;27;45454;-75
2023/07/23 12:15:24;;;;;;;;;5.00;4.00;;;;;;;;5097485;27;45429;-75
2023/07/23 12:17:51;;;;;;;;;3.67;3.33;;;;;;;;5097291;27;45387;-71
2023/07/23 12:20:17;;;;;;;;;4.00;3.33;;;;;;;;5097119;27;45421;-76
2023/07/23 12:23:08;;;;;;;;;4.00;3.33;;;;;;;;5097363;27;46112;-72
2023/07/23 12:25:33;;;;;;;;;3.00;3.00;;;;;;;;5095978;27;45662;-75
2023/07/23 12:27:59;;;;;;;;;3.00;2.00;;;;;;;;5097453;27;45455;-75
2023/07/23 12:30:24;;;;;;;;;3.00;3.00;;;;;;;;5097308;27;45339;-74
2023/07/23 12:32:49;;;;;;;;;2.33;2.33;;;;;;;;5097132;27;45455;-75
2023/07/23 12:35:15;;;;;;;;;4.33;3.33;;;;;;;;5097399;27;45415;-75
2023/07/23 12:37:41;;;;;;;;;4.00;4.00;;;;;;;;5097902;27;45148;-76
2023/07/23 12:40:09;;;;;;;;;4.00;4.00;;;;;;;;5096897;27;45502;-75
2023/07/23 12:42:36;;;;;;;;;3.00;3.00;;;;;;;;5096910;27;45376;-75
2023/07/23 12:45:03;;;;;;;;;4.00;4.00;;;;;;;;5097297;27;45476;-76
2023/07/23 12:47:28;;;;;;;;;3.33;3.33;;;;;;;;5101125;27;45326;-75
2023/07/23 12:49:59;;;;;;;;;3.00;3.00;;;;;;;;5100823;27;46203;-75
2023/07/23 12:52:25;;;;;;;;;1.00;1.00;;;;;;;;5100855;27;45482;-75
2023/07/23 12:54:50;;;;;;;;;2.33;2.33;;;;;;;;5100301;27;45447;-76
2023/07/23 12:57:16;;;;;;;;;4.00;4.00;;;;;;;;5100452;27;45471;-75
2023/07/23 12:59:43;;;;;;;;;4.00;3.33;;;;;;;;5100384;27;46253;-76
2023/07/23 13:02:09;;;;;;;;;3.67;3.00;;;;;;;;5100262;27;45468;-75
2023/07/23 13:04:36;;;;;;;;;2.67;2.67;;;;;;;;5100311;27;45506;-76
2023/07/23 13:07:01;;;;;;;;;3.00;3.00;;;;;;;;5100508;27;45486;-75
2023/07/23 13:09:26;;;;;;;;;4.00;3.00;;;;;;;;5100002;27;45388;-75
2023/07/23 13:11:52;;;;;;;;;4.33;4.00;;;;;;;;5098751;27;45531;-75
2023/07/23 13:14:17;;;;;;;;;4.00;4.00;;;;;;;;5100200;27;45688;-75
2023/07/23 13:16:43;;;;;;;;;3.00;2.33;;;;;;;;5100586;27;45431;-75
2023/07/23 13:19:08;;;;;;;;;3.00;3.00;;;;;;;;5099768;27;45333;-75
2023/07/23 13:21:33;;;;;;;;;4.67;3.33;;;;;;;;5099376;27;45495;-74
2023/07/23 13:23:59;;;;;;;;;3.67;3.67;;;;;;;;5099735;27;45454;-72
2023/07/23 13:26:24;;;;;;;;;4.67;4.00;;;;;;;;5099294;27;45521;-75
2023/07/23 13:28:50;;;;;;;;;3.00;2.67;;;;;;;;5099265;27;45425;-71
2023/07/23 13:31:18;;;;;;;;;3.00;2.67;;;;;;;;5099835;27;45345;-72
2023/07/23 13:33:43;;;;;;;;;5.00;5.00;;;;;;;;5099978;27;45349;-75
2023/07/23 13:36:08;;;;;;;;;4.00;4.00;;;;;;;;5099061;27;45288;-72
2023/07/23 13:38:34;;;;;;;;;2.33;2.33;;;;;;;;5099081;27;45461;-71
2023/07/23 13:40:59;;;;;;;;;7.00;7.00;;;;;;;;5099167;27;45525;-72
2023/07/23 13:43:24;;;;;;;;;6.00;5.00;;;;;;;;5099232;27;45460;-75
2023/07/23 13:45:50;;;;;;;;;4.00;4.00;;;;;;;;5099903;27;45298;-75
2023/07/23 13:48:15;;;;;;;;;4.00;4.00;;;;;;;;5099887;27;45994;-72
2023/07/23 13:50:41;;;;;;;;;4.67;4.00;;;;;;;;5099593;27;45341;-71
2023/07/23 13:53:06;;;;;;;;;4.00;4.00;;;;;;;;5099308;27;45650;-75
2023/07/23 13:55:31;;;;;;;;;4.67;4.67;;;;;;;;5098788;27;45498;-75
2023/07/23 13:57:57;;;;;;;;;5.00;5.00;;;;;;;;5097734;27;46018;-72
2023/07/23 14:00:22;;;;;;;;;5.67;5.67;;;;;;;;5098869;27;45449;-70
2023/07/23 14:02:48;;;;;;;;;3.00;3.00;;;;;;;;5099305;27;45414;-71
2023/07/23 14:05:13;;;;;;;;;4.33;4.33;;;;;;;;5099875;27;45273;-75
2023/07/23 14:07:39;;;;;;;;;4.00;4.00;;;;;;;;5098930;27;46468;-75
2023/07/23 14:10:05;;;;;;;;;4.00;4.00;;;;;;;;5098988;27;45448;-74
2023/07/23 14:12:30;;;;;;;;;5.00;5.00;;;;;;;;5098974;27;45328;-76
2023/07/23 14:14:56;;;;;;;;;6.33;5.33;;;;;;;;5099204;27;45448;-75
2023/07/23 14:17:21;;;;;;;;;4.00;4.00;;;;;;;;5098968;27;45391;-75
2023/07/23 14:19:46;;;;;;;;;5.00;5.00;;;;;;;;5099229;27;45251;-75
2023/07/23 14:22:12;;;;;;;;;4.00;3.33;;;;;;;;5099027;27;45942;-76
2023/07/23 14:24:37;;;;;;;;;4.00;4.00;;;;;;;;5099276;27;45275;-74
2023/07/23 14:27:03;;;;;;;;;2.67;2.67;;;;;;;;5098713;27;45928;-75
2023/07/23 14:29:28;;;;;;;;;3.00;3.00;;;;;;;;5098851;27;45333;-75
2023/07/23 14:31:54;;;;;;;;;3.00;3.00;;;;;;;;5099231;27;45511;-75
2023/07/23 14:34:19;;;;;;;;;4.00;4.00;;;;;;;;5099278;27;45342;-75
2023/07/23 14:36:45;;;;;;;;;7.00;7.00;;;;;;;;5098601;27;45958;-73
2023/07/23 14:39:11;;;;;;;;;5.67;5.67;;;;;;;;5098495;27;45287;-74
2023/07/23 14:41:37;;;;;;;;;4.67;3.67;;;;;;;;5098980;27;45350;-74
2023/07/23 14:44:02;;;;;;;;;5.00;4.33;;;;;;;;5099397;27;45396;-73
2023/07/23 14:46:27;;;;;;;;;5.33;5.33;;;;;;;;5098425;27;45940;-75